Time;durP1;ratioP1;P1;durP2;ratioP2;P2;SDS_P1;SDS_P2;PMS_P1;PMS_P2;Temp;Humidity;BMP_temperature;BMP_pressure;BME280_temperature;BME280_humidity;BME280_pressure;Samples;Min_cycle;Max_cycle;Signal;HPM_P1;HPM_P2
2024/02/27 00:02:29;;;;;;;10.85;5.93;;;;;;;;;;6266062;28;20037;-79
2024/02/27 00:05:33;;;;;;;12.63;6.43;;;;;;;;;;6272593;28;20414;-80
2024/02/27 00:08:35;;;;;;;13.32;6.70;;;;;;;;;;6240795;28;20048;-81
2024/02/27 00:11:37;;;;;;;10.65;5.85;;;;;;;;;;6252543;28;20428;-80
2024/02/27 00:14:40;;;;;;;11.48;6.93;;;;;;;;;;6278595;28;20051;-80
2024/02/27 00:17:43;;;;;;;14.48;7.38;;;;;;;;;;6275777;28;20620;-81
2024/02/27 00:20:49;;;;;;;15.70;7.53;;;;;;;;;;6248871;28;20040;-79
2024/02/27 00:23:52;;;;;;;13.27;7.32;;;;;;;;;;6262705;28;20048;-81
2024/02/27 00:26:54;;;;;;;13.13;7.28;;;;;;;;;;6249045;28;20043;-81
2024/02/27 00:29:57;;;;;;;12.27;7.97;;;;;;;;;;6268535;28;20101;-79
2024/02/27 00:32:59;;;;;;;14.52;8.65;;;;;;;;;;6245355;28;20142;-79
2024/02/27 00:36:04;;;;;;;12.98;8.90;;;;;;;;;;6264456;28;20103;-80
2024/02/27 00:39:07;;;;;;;14.02;8.40;;;;;;;;;;6266076;28;20052;-79
2024/02/27 00:42:09;;;;;;;14.18;8.55;;;;;;;;;;6239549;28;20545;-79
2024/02/27 00:45:11;;;;;;;17.70;8.95;;;;;;;;;;6245535;28;20178;-79
2024/02/27 00:48:13;;;;;;;14.30;8.13;;;;;;;;;;6237520;28;20044;-79
2024/02/27 00:51:15;;;;;;;13.38;8.73;;;;;;;;;;6250330;28;20052;-79
2024/02/27 00:54:18;;;;;;;14.60;9.13;;;;;;;;;;6266656;28;20045;-79
2024/02/27 00:57:23;;;;;;;16.25;8.93;;;;;;;;;;6248247;28;20048;-79
2024/02/27 01:00:25;;;;;;;15.25;9.20;;;;;;;;;;6247459;28;20788;-79
2024/02/27 01:03:27;;;;;;;18.90;9.70;;;;;;;;;;6262833;28;20048;-79
2024/02/27 01:06:29;;;;;;;15.45;9.15;;;;;;;;;;6262955;28;20083;-79
2024/02/27 01:09:36;;;;;;;13.60;8.18;;;;;;;;;;6279295;28;20063;-79
2024/02/27 01:12:38;;;;;;;13.50;9.13;;;;;;;;;;6262396;28;20500;-79
2024/02/27 01:15:42;;;;;;;15.40;9.63;;;;;;;;;;6264378;28;20048;-79
2024/02/27 01:18:44;;;;;;;15.20;8.90;;;;;;;;;;6248419;28;20056;-79
2024/02/27 01:21:46;;;;;;;18.92;10.65;;;;;;;;;;6281201;28;20044;-79
2024/02/27 01:24:51;;;;;;;18.08;9.82;;;;;;;;;;6249174;28;20992;-80
2024/02/27 01:27:55;;;;;;;21.70;11.00;;;;;;;;;;6257333;28;20048;-78
2024/02/27 01:30:57;;;;;;;20.42;10.68;;;;;;;;;;6280402;28;20045;-79
2024/02/27 01:33:59;;;;;;;22.27;11.15;;;;;;;;;;6260556;28;20811;-79
2024/02/27 01:37:02;;;;;;;27.08;11.60;;;;;;;;;;6236536;28;20053;-79
2024/02/27 01:40:05;;;;;;;17.50;10.50;;;;;;;;;;6260307;28;20139;-80
2024/02/27 01:43:28;;;;;;;21.02;11.20;;;;;;;;;;6278540;28;20130;-78
2024/02/27 01:46:31;;;;;;;18.83;10.90;;;;;;;;;;6253783;28;20045;-79
2024/02/27 01:49:33;;;;;;;17.00;9.70;;;;;;;;;;6230195;28;20051;-80
2024/02/27 01:52:36;;;;;;;16.42;10.55;;;;;;;;;;6239879;28;20049;-80
2024/02/27 01:55:39;;;;;;;19.13;10.98;;;;;;;;;;6246792;28;21015;-79
2024/02/27 01:58:42;;;;;;;16.67;11.40;;;;;;;;;;6263958;28;20415;-79
2024/02/27 02:01:44;;;;;;;14.48;9.15;;;;;;;;;;6260720;28;20050;-80
2024/02/27 02:04:48;;;;;;;19.35;10.63;;;;;;;;;;6243623;28;20489;-80
2024/02/27 02:07:51;;;;;;;17.73;9.50;;;;;;;;;;6261018;28;20048;-79
2024/02/27 02:10:54;;;;;;;15.00;9.88;;;;;;;;;;6244306;28;20105;-79
2024/02/27 02:13:56;;;;;;;18.02;9.77;;;;;;;;;;6265821;28;20113;-79
2024/02/27 02:16:59;;;;;;;14.52;9.00;;;;;;;;;;6246392;28;20056;-79
2024/02/27 02:20:04;;;;;;;16.67;10.10;;;;;;;;;;6228575;28;20055;-79
2024/02/27 02:23:08;;;;;;;19.75;9.57;;;;;;;;;;6247435;28;20055;-79
2024/02/27 02:26:10;;;;;;;19.75;9.63;;;;;;;;;;6261051;28;20115;-79
2024/02/27 02:29:12;;;;;;;16.35;8.20;;;;;;;;;;6256511;28;20056;-79
2024/02/27 02:32:14;;;;;;;18.02;8.98;;;;;;;;;;6263497;28;20167;-79
2024/02/27 02:35:17;;;;;;;17.58;8.93;;;;;;;;;;6230863;28;20442;-82
2024/02/27 02:38:19;;;;;;;17.73;9.57;;;;;;;;;;6263491;28;20053;-79
2024/02/27 02:41:21;;;;;;;16.33;9.85;;;;;;;;;;6277287;28;20032;-78
2024/02/27 02:44:24;;;;;;;16.92;8.82;;;;;;;;;;6277884;28;20044;-79
2024/02/27 02:47:27;;;;;;;15.25;8.98;;;;;;;;;;6241110;28;20044;-79
2024/02/27 02:50:30;;;;;;;13.95;7.85;;;;;;;;;;6264289;28;20040;-79
2024/02/27 02:53:32;;;;;;;15.75;8.43;;;;;;;;;;6278628;28;20055;-80
2024/02/27 02:56:34;;;;;;;14.95;8.10;;;;;;;;;;6304613;28;20045;-80
2024/02/27 02:59:44;;;;;;;10.82;6.45;;;;;;;;;;6261024;28;20044;-79
2024/02/27 03:02:46;;;;;;;12.55;7.53;;;;;;;;;;6229730;28;20048;-80
2024/02/27 03:05:49;;;;;;;10.82;7.88;;;;;;;;;;6260608;28;20454;-80
2024/02/27 03:08:52;;;;;;;14.40;8.02;;;;;;;;;;6263737;28;20123;-80
2024/02/27 03:11:54;;;;;;;12.40;7.28;;;;;;;;;;6232295;28;20048;-80
2024/02/27 03:14:57;;;;;;;11.23;7.53;;;;;;;;;;6260790;28;20055;-78
2024/02/27 03:17:59;;;;;;;14.45;8.80;;;;;;;;;;6279118;28;20044;-78
2024/02/27 03:21:02;;;;;;;14.18;7.97;;;;;;;;;;6240548;28;20135;-79
2024/02/27 03:24:05;;;;;;;12.00;6.65;;;;;;;;;;6261753;28;20532;-80
2024/02/27 03:27:08;;;;;;;14.80;8.00;;;;;;;;;;6276742;28;20056;-80
2024/02/27 03:30:13;;;;;;;18.50;9.15;;;;;;;;;;6240500;28;20052;-80
2024/02/27 03:33:17;;;;;;;12.80;8.18;;;;;;;;;;6244937;28;20445;-80
2024/02/27 03:36:21;;;;;;;14.45;8.48;;;;;;;;;;6227475;28;20068;-79
2024/02/27 03:39:23;;;;;;;13.60;8.63;;;;;;;;;;6236537;28;20052;-79
2024/02/27 03:42:26;;;;;;;16.85;7.90;;;;;;;;;;6280530;28;20407;-79
2024/02/27 03:45:30;;;;;;;16.08;7.72;;;;;;;;;;6281802;28;20045;-78
2024/02/27 03:48:32;;;;;;;12.75;7.68;;;;;;;;;;6262620;28;20536;-79
2024/02/27 03:51:35;;;;;;;13.00;6.82;;;;;;;;;;6263220;28;20043;-79
2024/02/27 03:54:38;;;;;;;12.68;7.45;;;;;;;;;;6263584;28;20534;-79
2024/02/27 03:57:41;;;;;;;17.98;7.15;;;;;;;;;;6250749;28;20052;-79
2024/02/27 04:00:44;;;;;;;15.25;9.00;;;;;;;;;;6248220;28;20534;-79
2024/02/27 04:03:48;;;;;;;13.50;8.35;;;;;;;;;;6232360;28;20526;-80
2024/02/27 04:06:50;;;;;;;15.02;7.20;;;;;;;;;;6266916;28;20155;-79
2024/02/27 04:09:52;;;;;;;14.52;6.80;;;;;;;;;;6228985;28;20651;-79
2024/02/27 04:12:54;;;;;;;14.52;7.32;;;;;;;;;;6260224;28;20060;-78
2024/02/27 04:15:58;;;;;;;12.73;6.88;;;;;;;;;;6241754;28;20128;-79
2024/02/27 04:19:01;;;;;;;13.63;7.38;;;;;;;;;;6226133;28;20044;-79
2024/02/27 04:22:04;;;;;;;11.85;6.15;;;;;;;;;;6281554;28;20044;-79
2024/02/27 04:25:06;;;;;;;13.90;5.95;;;;;;;;;;6277443;28;20101;-79
2024/02/27 04:28:10;;;;;;;13.23;6.55;;;;;;;;;;6276213;28;20049;-79
2024/02/27 04:31:12;;;;;;;14.88;6.43;;;;;;;;;;6263984;28;20552;-78
2024/02/27 04:34:15;;;;;;;14.88;6.05;;;;;;;;;;6284927;28;20082;-79
2024/02/27 04:37:18;;;;;;;12.63;7.60;;;;;;;;;;6273485;28;20041;-79
2024/02/27 04:40:20;;;;;;;10.70;6.72;;;;;;;;;;6266721;28;20060;-79
2024/02/27 04:43:22;;;;;;;15.38;5.90;;;;;;;;;;6262449;28;20051;-80
2024/02/27 04:46:24;;;;;;;11.98;6.90;;;;;;;;;;6280786;28;20054;-78
2024/02/27 04:49:27;;;;;;;12.90;5.40;;;;;;;;;;6263417;28;20140;-81
2024/02/27 04:52:29;;;;;;;11.93;6.45;;;;;;;;;;6255385;28;20496;-79
2024/02/27 04:55:32;;;;;;;10.55;6.13;;;;;;;;;;6249821;28;20105;-79
2024/02/27 04:58:36;;;;;;;11.38;5.97;;;;;;;;;;6280108;28;20052;-79
2024/02/27 05:01:41;;;;;;;10.57;6.10;;;;;;;;;;6229552;28;20056;-78
2024/02/27 05:04:43;;;;;;;14.68;6.38;;;;;;;;;;6256924;28;20056;-78
2024/02/27 05:07:45;;;;;;;12.20;6.63;;;;;;;;;;6263748;28;20120;-80
2024/02/27 05:10:48;;;;;;;11.70;5.57;;;;;;;;;;6242253;28;20699;-81
2024/02/27 05:13:51;;;;;;;14.00;5.70;;;;;;;;;;6266803;28;20553;-82
2024/02/27 05:16:54;;;;;;;12.48;5.03;;;;;;;;;;6241970;28;20045;-82
2024/02/27 05:19:56;;;;;;;11.65;5.72;;;;;;;;;;6259151;28;20036;-81
2024/02/27 05:23:00;;;;;;;15.23;5.07;;;;;;;;;;6260613;28;20063;-81
2024/02/27 05:26:03;;;;;;;11.55;6.10;;;;;;;;;;6268897;28;20056;-80
2024/02/27 05:29:05;;;;;;;10.20;5.63;;;;;;;;;;6268376;28;20052;-78
2024/02/27 05:32:09;;;;;;;8.60;5.00;;;;;;;;;;6243590;28;20057;-81
2024/02/27 05:35:12;;;;;;;10.77;6.30;;;;;;;;;;6262344;28;20052;-77
2024/02/27 05:38:18;;;;;;;9.98;5.63;;;;;;;;;;6274906;28;20051;-77
2024/02/27 05:41:20;;;;;;;10.93;5.97;;;;;;;;;;6257147;28;20056;-79
2024/02/27 05:44:23;;;;;;;11.23;6.43;;;;;;;;;;6253775;28;20148;-79
2024/02/27 05:47:28;;;;;;;11.20;6.35;;;;;;;;;;6230878;28;20057;-79
2024/02/27 05:50:30;;;;;;;;;;;;;;;;;;6258893;28;20044;-79
2024/02/27 05:53:33;;;;;;;14.15;6.65;;;;;;;;;;6274516;28;19932;-78
2024/02/27 05:56:35;;;;;;;13.68;6.18;;;;;;;;;;6259910;28;20075;-79
2024/02/27 05:59:37;;;;;;;10.70;6.85;;;;;;;;;;6230076;28;20044;-78
2024/02/27 06:02:40;;;;;;;13.60;5.32;;;;;;;;;;6224865;28;20703;-78
2024/02/27 06:05:42;;;;;;;10.70;5.03;;;;;;;;;;6259715;28;20768;-77
2024/02/27 06:08:45;;;;;;;13.27;6.40;;;;;;;;;;6273983;28;20098;-77
2024/02/27 06:11:48;;;;;;;12.23;5.82;;;;;;;;;;6256930;28;20685;-77
2024/02/27 06:14:50;;;;;;;15.50;6.05;;;;;;;;;;6257828;28;20522;-77
2024/02/27 06:17:53;;;;;;;9.82;6.15;;;;;;;;;;6258622;28;20048;-77
2024/02/27 06:24:17;;;;;;;12.43;5.88;;;;;;;;;;6280899;28;20051;-77
2024/02/27 06:27:22;;;;;;;13.48;7.10;;;;;;;;;;6270277;28;20044;-78
2024/02/27 06:30:24;;;;;;;14.07;6.97;;;;;;;;;;6266825;28;20701;-77
2024/02/27 06:33:26;;;;;;;32.92;19.38;;;;;;;;;;6261751;28;20067;-78
2024/02/27 06:36:32;;;;;;;56.03;22.40;;;;;;;;;;6275190;28;20060;-78
2024/02/27 06:39:35;;;;;;;11.50;7.28;;;;;;;;;;6243049;28;20052;-77
2024/02/27 06:42:38;;;;;;;11.40;7.28;;;;;;;;;;6277931;28;20056;-77
2024/02/27 06:45:40;;;;;;;14.23;6.57;;;;;;;;;;6281713;28;20756;-77
2024/02/27 06:48:43;;;;;;;13.07;6.15;;;;;;;;;;6247602;28;20084;-77
2024/02/27 06:51:47;;;;;;;12.68;7.95;;;;;;;;;;6234149;28;20032;-79
2024/02/27 06:54:50;;;;;;;10.30;6.85;;;;;;;;;;6240694;28;20057;-79
2024/02/27 06:57:52;;;;;;;14.35;7.13;;;;;;;;;;6239057;28;20056;-78
2024/02/27 07:00:54;;;;;;;12.25;7.35;;;;;;;;;;6243772;28;20044;-78
2024/02/27 07:03:58;;;;;;;17.30;8.13;;;;;;;;;;6244584;28;20044;-78
2024/02/27 07:07:02;;;;;;;14.18;6.60;;;;;;;;;;6266565;28;20048;-78
2024/02/27 07:10:04;;;;;;;19.33;11.07;;;;;;;;;;6244834;28;20181;-79
2024/02/27 07:13:08;;;;;;;20.35;10.70;;;;;;;;;;6260500;28;20052;-79
2024/02/27 07:16:11;;;;;;;11.48;4.97;;;;;;;;;;6272114;28;20847;-79
2024/02/27 07:19:15;;;;;;;11.13;5.43;;;;;;;;;;6225378;28;20056;-78
2024/02/27 07:22:20;;;;;;;10.07;5.30;;;;;;;;;;6275789;28;20052;-79
2024/02/27 07:25:25;;;;;;;10.55;4.97;;;;;;;;;;6270558;28;20561;-80
2024/02/27 07:28:27;;;;;;;8.23;5.00;;;;;;;;;;6256600;28;20045;-80
2024/02/27 07:31:35;;;;;;;8.75;4.18;;;;;;;;;;6244593;28;20152;-80
2024/02/27 07:34:37;;;;;;;8.90;5.40;;;;;;;;;;6275412;28;20097;-79
2024/02/27 07:37:40;;;;;;;9.63;3.70;;;;;;;;;;6263617;28;21701;-80
2024/02/27 07:40:46;;;;;;;10.30;3.92;;;;;;;;;;6277622;28;20056;-81
2024/02/27 07:43:53;;;;;;;10.27;4.07;;;;;;;;;;6229014;28;20751;-80
2024/02/27 07:46:55;;;;;;;8.73;5.13;;;;;;;;;;6284559;28;20526;-81
2024/02/27 07:49:59;;;;;;;8.23;3.72;;;;;;;;;;6240792;28;20109;-78
2024/02/27 07:53:01;;;;;;;9.98;5.25;;;;;;;;;;6268311;28;20055;-80
2024/02/27 07:56:04;;;;;;;14.43;7.90;;;;;;;;;;6252800;28;20052;-80
2024/02/27 07:59:08;;;;;;;9.90;5.18;;;;;;;;;;6252429;28;20044;-80
2024/02/27 08:02:10;;;;;;;7.18;3.88;;;;;;;;;;6251642;28;20052;-81
2024/02/27 08:05:12;;;;;;;20.77;10.48;;;;;;;;;;6262925;28;20513;-80
2024/02/27 08:08:16;;;;;;;7.88;3.22;;;;;;;;;;6242434;28;20070;-81
2024/02/27 08:11:21;;;;;;;6.28;3.67;;;;;;;;;;6256669;28;20588;-82
2024/02/27 08:14:25;;;;;;;5.45;3.22;;;;;;;;;;6275023;28;20045;-82
2024/02/27 08:17:29;;;;;;;5.55;2.75;;;;;;;;;;6256621;28;20110;-82
2024/02/27 08:20:31;;;;;;;10.43;3.60;;;;;;;;;;6264452;28;20052;-83
2024/02/27 08:23:35;;;;;;;6.88;3.65;;;;;;;;;;6229090;28;20068;-82
2024/02/27 08:26:38;;;;;;;8.60;4.07;;;;;;;;;;6253560;28;20052;-83
2024/02/27 08:29:40;;;;;;;7.15;3.95;;;;;;;;;;6260635;28;20072;-82
2024/02/27 08:32:42;;;;;;;7.55;3.25;;;;;;;;;;6247292;28;20063;-82
2024/02/27 08:35:44;;;;;;;16.60;8.68;;;;;;;;;;6276787;28;20051;-82
2024/02/27 08:38:48;;;;;;;9.27;3.92;;;;;;;;;;6249443;28;20048;-83
2024/02/27 08:41:50;;;;;;;7.28;4.63;;;;;;;;;;6252579;28;20056;-82
2024/02/27 08:44:54;;;;;;;7.93;5.03;;;;;;;;;;6243682;28;20048;-81
2024/02/27 08:47:56;;;;;;;7.43;3.40;;;;;;;;;;6262078;28;20047;-80
2024/02/27 08:50:59;;;;;;;10.68;4.35;;;;;;;;;;6259132;28;20138;-81
2024/02/27 08:54:02;;;;;;;8.55;4.15;;;;;;;;;;6248930;28;20048;-82
2024/02/27 08:57:04;;;;;;;6.32;4.15;;;;;;;;;;6269151;28;20067;-82
2024/02/27 09:00:11;;;;;;;6.15;3.15;;;;;;;;;;6246264;28;20076;-83
2024/02/27 09:03:13;;;;;;;7.00;3.33;;;;;;;;;;6250872;28;20461;-82
2024/02/27 09:06:17;;;;;;;7.32;2.97;;;;;;;;;;6282026;28;20033;-80
2024/02/27 09:09:20;;;;;;;6.20;3.15;;;;;;;;;;6277830;28;20521;-80
2024/02/27 09:12:23;;;;;;;7.43;4.13;;;;;;;;;;6255352;28;20157;-79
2024/02/27 09:15:26;;;;;;;8.73;4.97;;;;;;;;;;6285716;28;20052;-79
2024/02/27 09:18:28;;;;;;;7.72;3.55;;;;;;;;;;6265331;28;20071;-80
2024/02/27 09:21:33;;;;;;;6.10;3.38;;;;;;;;;;6285939;28;20147;-80
2024/02/27 09:24:35;;;;;;;10.05;5.70;;;;;;;;;;6271197;28;20044;-80
2024/02/27 09:27:38;;;;;;;9.88;3.63;;;;;;;;;;6250500;28;20051;-80
2024/02/27 09:30:40;;;;;;;10.77;3.85;;;;;;;;;;6265635;28;20546;-80
2024/02/27 09:33:43;;;;;;;8.50;3.25;;;;;;;;;;6264144;28;20053;-80
2024/02/27 09:36:46;;;;;;;7.97;3.50;;;;;;;;;;6264841;28;20045;-79
2024/02/27 09:39:49;;;;;;;10.32;3.92;;;;;;;;;;6265927;28;20060;-79
2024/02/27 09:43:01;;;;;;;5.45;2.92;;;;;;;;;;6266889;28;20055;-79
2024/02/27 09:46:04;;;;;;;6.20;2.67;;;;;;;;;;6252434;28;20069;-79
2024/02/27 09:49:08;;;;;;;5.50;2.85;;;;;;;;;;6240515;28;20044;-81
2024/02/27 09:52:17;;;;;;;8.60;2.78;;;;;;;;;;6266750;28;20956;-80
2024/02/27 09:55:21;;;;;;;6.35;2.47;;;;;;;;;;6259355;28;20089;-79
2024/02/27 09:58:24;;;;;;;4.63;2.42;;;;;;;;;;6225955;28;20095;-78
2024/02/27 10:01:30;;;;;;;6.32;3.53;;;;;;;;;;6224231;28;20049;-79
2024/02/27 10:04:36;;;;;;;9.80;3.80;;;;;;;;;;6265873;28;20044;-79
2024/02/27 10:07:39;;;;;;;5.85;2.67;;;;;;;;;;6261146;28;20049;-80
2024/02/27 10:10:42;;;;;;;5.35;2.67;;;;;;;;;;6262581;28;20036;-79
2024/02/27 10:13:44;;;;;;;7.32;2.90;;;;;;;;;;6215637;28;20037;-79
2024/02/27 10:16:47;;;;;;;7.72;2.67;;;;;;;;;;6262989;28;20427;-79
2024/02/27 10:19:51;;;;;;;5.68;2.60;;;;;;;;;;6250957;28;20097;-79
2024/02/27 10:22:53;;;;;;;8.68;3.28;;;;;;;;;;6276498;28;20233;-79
2024/02/27 10:26:07;;;;;;;4.90;2.38;;;;;;;;;;6249115;28;20047;-79
2024/02/27 10:29:14;;;;;;;7.60;2.67;;;;;;;;;;6278846;28;20429;-80
2024/02/27 10:32:18;;;;;;;5.78;2.20;;;;;;;;;;6231935;28;20063;-79
2024/02/27 10:35:22;;;;;;;5.10;2.17;;;;;;;;;;6228443;28;20128;-79
2024/02/27 10:38:27;;;;;;;8.38;3.08;;;;;;;;;;6274143;28;20131;-79
2024/02/27 10:41:29;;;;;;;7.82;2.60;;;;;;;;;;6234908;28;20158;-79
2024/02/27 10:44:32;;;;;;;9.27;2.95;;;;;;;;;;6267509;28;20847;-78
2024/02/27 10:47:35;;;;;;;7.18;2.72;;;;;;;;;;6265520;28;20131;-77
2024/02/27 10:50:37;;;;;;;6.47;2.67;;;;;;;;;;6253626;28;20747;-78
2024/02/27 10:53:42;;;;;;;6.63;2.60;;;;;;;;;;6245258;28;20053;-79
2024/02/27 10:56:48;;;;;;;4.78;2.00;;;;;;;;;;6262478;28;20055;-78
2024/02/27 10:59:52;;;;;;;5.13;3.10;;;;;;;;;;6240364;28;20087;-80
2024/02/27 11:02:57;;;;;;;5.22;2.72;;;;;;;;;;6264828;28;20717;-77
2024/02/27 11:06:00;;;;;;;8.98;2.40;;;;;;;;;;6261417;28;20045;-75
2024/02/27 11:09:07;;;;;;;8.57;2.42;;;;;;;;;;6261928;28;20118;-77
2024/02/27 11:12:17;;;;;;;5.88;2.20;;;;;;;;;;6231806;28;20047;-77
2024/02/27 11:15:20;;;;;;;4.43;2.25;;;;;;;;;;6294246;28;20048;-77
2024/02/27 11:18:25;;;;;;;9.45;2.15;;;;;;;;;;6260235;28;20043;-77
2024/02/27 11:21:29;;;;;;;5.35;1.50;;;;;;;;;;6245131;28;20056;-78
2024/02/27 11:24:31;;;;;;;6.20;1.98;;;;;;;;;;6250811;28;20052;-76
2024/02/27 11:27:35;;;;;;;4.70;1.90;;;;;;;;;;6247300;28;20394;-77
2024/02/27 11:30:40;;;;;;;7.00;2.10;;;;;;;;;;6258307;28;20224;-76
2024/02/27 11:33:53;;;;;;;5.93;2.22;;;;;;;;;;6249852;28;20863;-77
2024/02/27 11:37:16;;;;;;;4.68;2.05;;;;;;;;;;6227522;28;20063;-76
2024/02/27 11:40:43;;;;;;;5.72;1.58;;;;;;;;;;6255942;28;20562;-76
2024/02/27 11:43:47;;;;;;;7.25;3.72;;;;;;;;;;6287946;28;20045;-77
2024/02/27 11:46:54;;;;;;;6.57;2.08;;;;;;;;;;6279074;28;20040;-77
2024/02/27 11:49:56;;;;;;;4.55;1.88;;;;;;;;;;6273325;28;20045;-77
2024/02/27 11:52:59;;;;;;;6.15;2.40;;;;;;;;;;6259464;28;20055;-80
2024/02/27 11:56:01;;;;;;;5.43;2.28;;;;;;;;;;6279424;28;20537;-77
2024/02/27 11:59:04;;;;;;;6.25;2.25;;;;;;;;;;6238757;28;20048;-76
2024/02/27 12:02:07;;;;;;;7.05;2.75;;;;;;;;;;6282158;28;20559;-78
2024/02/27 12:05:10;;;;;;;5.57;2.40;;;;;;;;;;6272132;28;20056;-77
2024/02/27 12:08:12;;;;;;;11.63;4.82;;;;;;;;;;6289528;28;20044;-77
2024/02/27 12:11:19;;;;;;;;;;;;;;;;;;6259555;28;20123;-78
2024/02/27 12:14:26;;;;;;;6.38;3.33;;;;;;;;;;6281820;28;19925;-78
2024/02/27 12:17:29;;;;;;;5.82;2.67;;;;;;;;;;6264165;28;20046;-77
2024/02/27 12:20:32;;;;;;;6.97;4.70;;;;;;;;;;6289392;28;20139;-77
2024/02/27 12:23:36;;;;;;;6.32;3.55;;;;;;;;;;6281249;28;20735;-77
2024/02/27 12:26:39;;;;;;;7.25;2.72;;;;;;;;;;6265896;28;20414;-77
2024/02/27 12:29:41;;;;;;;6.03;3.35;;;;;;;;;;6285816;28;20664;-77
2024/02/27 12:32:44;;;;;;;8.00;3.03;;;;;;;;;;6270295;28;20045;-76
2024/02/27 12:35:47;;;;;;;9.10;2.40;;;;;;;;;;6250027;28;20064;-77
2024/02/27 12:38:51;;;;;;;8.95;4.97;;;;;;;;;;6268949;28;20567;-79
2024/02/27 12:41:53;;;;;;;12.00;3.80;;;;;;;;;;6266603;28;20046;-78
2024/02/27 12:44:55;;;;;;;5.47;2.28;;;;;;;;;;6285124;28;20043;-77
2024/02/27 12:47:57;;;;;;;8.07;4.97;;;;;;;;;;6282455;28;20475;-77
2024/02/27 12:51:01;;;;;;;8.50;3.53;;;;;;;;;;6267276;28;20065;-77
2024/02/27 12:54:06;;;;;;;10.57;4.53;;;;;;;;;;6267196;28;20156;-75
2024/02/27 12:57:09;;;;;;;8.52;3.75;;;;;;;;;;6284578;28;20052;-76
2024/02/27 13:00:12;;;;;;;6.90;3.20;;;;;;;;;;6274497;28;20056;-76
2024/02/27 13:03:17;;;;;;;6.85;3.05;;;;;;;;;;6281747;28;20036;-76
2024/02/27 13:06:21;;;;;;;6.07;3.40;;;;;;;;;;6262987;28;20415;-76
2024/02/27 13:09:26;;;;;;;8.10;4.05;;;;;;;;;;6259650;28;21075;-77
2024/02/27 13:12:29;;;;;;;7.38;3.25;;;;;;;;;;6285198;28;20056;-77
2024/02/27 13:15:32;;;;;;;9.40;3.85;;;;;;;;;;6276049;28;20102;-78
2024/02/27 13:18:35;;;;;;;7.78;4.13;;;;;;;;;;6231410;28;20122;-80
2024/02/27 13:21:40;;;;;;;8.43;4.07;;;;;;;;;;6264569;28;20043;-78
2024/02/27 13:24:44;;;;;;;10.70;4.90;;;;;;;;;;6280235;28;20044;-77
2024/02/27 13:27:47;;;;;;;7.45;4.35;;;;;;;;;;6257659;28;20615;-77
2024/02/27 13:30:49;;;;;;;7.03;3.45;;;;;;;;;;6274104;28;20159;-77
2024/02/27 13:33:51;;;;;;;10.00;3.85;;;;;;;;;;6282658;28;20528;-76
2024/02/27 13:36:54;;;;;;;9.05;3.50;;;;;;;;;;6262327;28;20064;-77
2024/02/27 13:39:56;;;;;;;15.40;9.82;;;;;;;;;;6240006;28;20056;-77
2024/02/27 13:42:58;;;;;;;11.52;3.95;;;;;;;;;;6291592;28;20414;-78
2024/02/27 13:46:02;;;;;;;8.98;4.57;;;;;;;;;;6273436;28;20045;-77
2024/02/27 13:49:06;;;;;;;8.60;4.28;;;;;;;;;;6297537;28;20143;-77
2024/02/27 13:52:10;;;;;;;8.73;3.92;;;;;;;;;;6283550;28;20071;-77
2024/02/27 13:55:12;;;;;;;10.90;3.88;;;;;;;;;;6268299;28;20040;-77
2024/02/27 13:58:18;;;;;;;7.38;3.33;;;;;;;;;;6305710;28;20636;-77
2024/02/27 14:01:20;;;;;;;9.43;4.18;;;;;;;;;;6281394;28;20129;-77
2024/02/27 14:04:23;;;;;;;8.85;4.03;;;;;;;;;;6272299;28;20048;-77
2024/02/27 14:07:30;;;;;;;8.68;4.85;;;;;;;;;;6289214;28;20075;-78
2024/02/27 14:10:33;;;;;;;7.03;3.70;;;;;;;;;;6276746;28;20044;-77
2024/02/27 14:13:38;;;;;;;6.85;3.35;;;;;;;;;;6265843;28;20040;-77
2024/02/27 14:16:40;;;;;;;10.00;3.47;;;;;;;;;;6270955;28;21032;-76
2024/02/27 14:19:44;;;;;;;11.18;4.22;;;;;;;;;;6258693;28;20060;-76
2024/02/27 14:22:47;;;;;;;10.63;2.90;;;;;;;;;;6240802;28;20052;-78
2024/02/27 14:25:50;;;;;;;12.65;2.97;;;;;;;;;;6257920;28;20053;-78
2024/02/27 14:28:53;;;;;;;8.13;3.60;;;;;;;;;;6281081;28;20094;-77
2024/02/27 14:31:56;;;;;;;5.93;3.13;;;;;;;;;;6255919;28;20580;-77
2024/02/27 14:34:59;;;;;;;14.35;2.92;;;;;;;;;;6276139;28;20109;-76
2024/02/27 14:38:01;;;;;;;11.38;4.93;;;;;;;;;;6241524;28;20707;-77
2024/02/27 14:41:04;;;;;;;13.27;3.40;;;;;;;;;;6259064;28;20044;-77
2024/02/27 14:44:07;;;;;;;7.63;2.97;;;;;;;;;;6224817;28;20051;-76
2024/02/27 14:47:10;;;;;;;8.68;3.15;;;;;;;;;;6255864;28;20048;-77
2024/02/27 14:50:14;;;;;;;7.00;2.75;;;;;;;;;;6246695;28;20044;-77
2024/02/27 14:53:17;;;;;;;17.00;4.85;;;;;;;;;;6266816;28;20148;-77
2024/02/27 14:56:19;;;;;;;12.63;5.30;;;;;;;;;;6261668;28;20048;-77
2024/02/27 14:59:22;;;;;;;13.50;5.65;;;;;;;;;;6264331;28;20762;-78
2024/02/27 15:02:26;;;;;;;9.05;3.30;;;;;;;;;;6266838;28;20589;-77
2024/02/27 15:05:29;;;;;;;13.73;6.82;;;;;;;;;;6248682;28;20055;-77
2024/02/27 15:08:31;;;;;;;25.85;12.27;;;;;;;;;;6249783;28;20044;-75
2024/02/27 15:11:34;;;;;;;23.05;12.07;;;;;;;;;;6302324;28;20044;-77
2024/02/27 15:14:36;;;;;;;22.17;12.25;;;;;;;;;;6247143;28;20687;-77
2024/02/27 15:17:38;;;;;;;21.23;10.43;;;;;;;;;;6274648;28;20429;-76
2024/02/27 15:20:41;;;;;;;22.48;11.13;;;;;;;;;;6259890;28;20052;-76
2024/02/27 15:23:43;;;;;;;27.88;13.85;;;;;;;;;;6264894;28;20132;-76
2024/02/27 15:26:45;;;;;;;33.90;19.20;;;;;;;;;;6258957;28;20053;-75
2024/02/27 15:29:48;;;;;;;28.40;15.40;;;;;;;;;;6256640;28;20715;-76
2024/02/27 15:32:50;;;;;;;14.82;8.75;;;;;;;;;;6260291;28;20044;-76
2024/02/27 15:35:52;;;;;;;14.57;6.15;;;;;;;;;;6247754;28;20045;-77
2024/02/27 15:38:54;;;;;;;10.15;5.38;;;;;;;;;;6268236;28;20053;-77
2024/02/27 15:41:57;;;;;;;12.63;6.18;;;;;;;;;;6262691;28;20551;-75
2024/02/27 15:44:59;;;;;;;10.18;5.55;;;;;;;;;;6253926;28;20066;-76
2024/02/27 15:48:01;;;;;;;11.52;7.53;;;;;;;;;;6264714;28;20045;-77
2024/02/27 15:51:08;;;;;;;11.85;6.00;;;;;;;;;;6261521;28;20041;-77
2024/02/27 15:54:10;;;;;;;14.43;6.13;;;;;;;;;;6268930;28;20052;-77
2024/02/27 15:57:14;;;;;;;11.57;5.93;;;;;;;;;;6282256;28;20040;-75
2024/02/27 16:00:18;;;;;;;14.45;6.18;;;;;;;;;;6259792;28;20079;-76
2024/02/27 16:03:29;;;;;;;11.75;7.75;;;;;;;;;;6259329;28;20103;-76
2024/02/27 16:06:47;;;;;;;9.98;5.50;;;;;;;;;;6259260;28;20044;-76
2024/02/27 16:09:50;;;;;;;12.50;7.53;;;;;;;;;;6239022;28;20080;-77
2024/02/27 16:12:52;;;;;;;12.93;6.95;;;;;;;;;;6263728;28;20075;-76
2024/02/27 16:15:54;;;;;;;9.80;6.05;;;;;;;;;;6247996;28;20556;-77
2024/02/27 16:18:58;;;;;;;12.65;8.20;;;;;;;;;;6263574;28;20147;-78
2024/02/27 16:22:08;;;;;;;7.57;4.40;;;;;;;;;;6263159;28;20055;-77
2024/02/27 16:25:10;;;;;;;10.45;5.05;;;;;;;;;;6247877;28;20033;-77
2024/02/27 16:28:12;;;;;;;10.27;5.32;;;;;;;;;;6259430;28;20052;-77
2024/02/27 16:31:16;;;;;;;10.98;4.88;;;;;;;;;;6264058;28;20056;-76
2024/02/27 16:34:19;;;;;;;15.18;5.28;;;;;;;;;;6250126;28;20186;-77
2024/02/27 16:37:22;;;;;;;11.43;5.38;;;;;;;;;;6280194;28;20129;-77
2024/02/27 16:40:26;;;;;;;8.00;4.68;;;;;;;;;;6279329;28;20739;-77
2024/02/27 16:43:29;;;;;;;7.22;4.28;;;;;;;;;;6261644;28;20040;-77
2024/02/27 16:46:33;;;;;;;9.40;4.38;;;;;;;;;;6280128;28;20056;-76
2024/02/27 16:49:37;;;;;;;8.82;4.13;;;;;;;;;;6253160;28;20297;-76
2024/02/27 16:52:40;;;;;;;7.53;5.20;;;;;;;;;;6283761;28;20055;-76
2024/02/27 16:55:42;;;;;;;6.80;4.07;;;;;;;;;;6248981;28;20059;-78
2024/02/27 16:58:46;;;;;;;10.00;4.75;;;;;;;;;;6271778;28;20056;-78
2024/02/27 17:01:49;;;;;;;14.57;4.70;;;;;;;;;;6267081;28;20053;-77
2024/02/27 17:04:51;;;;;;;12.75;5.50;;;;;;;;;;6283820;28;20620;-78
2024/02/27 17:07:54;;;;;;;15.40;5.70;;;;;;;;;;6269596;28;20072;-78
2024/02/27 17:10:57;;;;;;;9.02;4.85;;;;;;;;;;6261212;28;20064;-78
2024/02/27 17:14:00;;;;;;;10.20;5.57;;;;;;;;;;6271199;28;20037;-79
2024/02/27 17:17:03;;;;;;;11.60;5.28;;;;;;;;;;6257987;28;20082;-77
2024/02/27 17:20:06;;;;;;;10.77;5.35;;;;;;;;;;6287002;28;20143;-77
2024/02/27 17:23:15;;;;;;;11.05;5.28;;;;;;;;;;6291328;28;20262;-78
2024/02/27 17:26:19;;;;;;;9.60;5.70;;;;;;;;;;6290852;28;20048;-79
2024/02/27 17:29:22;;;;;;;9.65;4.53;;;;;;;;;;6291270;28;20429;-79
2024/02/27 17:32:25;;;;;;;10.32;5.75;;;;;;;;;;6266520;28;20048;-78
2024/02/27 17:35:27;;;;;;;12.32;5.75;;;;;;;;;;6241665;28;20048;-78
2024/02/27 17:38:30;;;;;;;10.05;4.90;;;;;;;;;;6277308;28;20037;-78
2024/02/27 17:41:32;;;;;;;10.75;5.70;;;;;;;;;;6264908;28;20158;-79
2024/02/27 17:44:35;;;;;;;11.88;5.13;;;;;;;;;;6278186;28;20812;-80
2024/02/27 17:47:38;;;;;;;10.85;4.78;;;;;;;;;;6265160;28;20056;-77
2024/02/27 17:50:41;;;;;;;9.27;3.67;;;;;;;;;;6261678;28;20628;-78
2024/02/27 17:53:43;;;;;;;8.98;4.45;;;;;;;;;;6276548;28;20592;-78
2024/02/27 17:56:46;;;;;;;8.20;3.83;;;;;;;;;;6278705;28;20529;-76
2024/02/27 17:59:51;;;;;;;10.02;4.57;;;;;;;;;;6246043;28;20139;-78
2024/02/27 18:02:57;;;;;;;9.35;4.60;;;;;;;;;;6251894;28;20056;-78
2024/02/27 18:06:06;;;;;;;9.00;4.38;;;;;;;;;;6265858;28;20040;-81
2024/02/27 18:09:11;;;;;;;7.97;4.28;;;;;;;;;;6249607;28;20230;-80
2024/02/27 18:12:14;;;;;;;7.07;3.50;;;;;;;;;;6276245;28;20044;-81
2024/02/27 18:15:17;;;;;;;6.18;3.20;;;;;;;;;;6254300;28;20040;-81